createdAt,value
2022-10-11T00:01:56.752Z,102609.28
2022-10-11T00:04:23.554Z,102613.94
2022-10-11T00:06:50.424Z,102613.59
2022-10-11T00:09:18.917Z,102616.28
2022-10-11T00:14:46.319Z,102608.16
2022-10-11T00:17:16.950Z,102614.69
2022-10-11T00:19:45.793Z,102616.63
2022-10-11T00:25:27.849Z,102614.69
2022-10-11T00:27:57.628Z,102619.47
2022-10-11T00:31:18.223Z,102610.06
2022-10-11T00:40:28.076Z,102625.34
2022-10-11T00:43:27.471Z,102628.06
2022-10-11T00:46:08.485Z,102626.78
2022-10-11T00:52:50.055Z,102633.16
2022-10-11T00:55:49.529Z,102638.09
2022-10-11T00:58:46.917Z,102643.31
2022-10-11T01:01:49.572Z,102640.47
2022-10-11T01:05:11.323Z,102645.22
2022-10-11T01:09:25.417Z,102645.38
2022-10-11T01:12:04.181Z,102653.78
2022-10-11T01:15:33.106Z,102650.31
2022-10-11T01:19:03.068Z,102653.00
2022-10-11T01:28:48.881Z,102659.00
2022-10-11T01:32:21.841Z,102663.13
2022-10-11T01:45:11.832Z,102672.78
2022-10-11T01:55:17.916Z,102668.75
2022-10-11T01:58:12.262Z,102665.25
2022-10-11T02:05:04.723Z,102670.97
2022-10-11T02:08:30.720Z,102677.00
2022-10-11T02:14:45.509Z,102678.44
2022-10-11T02:24:00.529Z,102676.69
2022-10-11T02:32:01.459Z,102673.19
2022-10-11T02:37:47.468Z,102681.78
2022-10-11T02:40:46.524Z,102682.59
2022-10-11T02:46:46.679Z,102688.31
2022-10-11T02:50:04.284Z,102680.81
2022-10-11T03:19:11.773Z,102698.84
2022-10-11T03:26:34.794Z,102700.44
2022-10-11T03:28:30.550Z,102696.31
2022-10-11T03:31:33.211Z,102694.72
2022-10-11T03:34:08.377Z,102694.72
2022-10-11T03:36:40.524Z,102702.84
2022-10-11T03:48:46.579Z,102711.56
2022-10-11T03:55:13.803Z,102723.78
2022-10-11T04:04:24.344Z,102719.50
2022-10-11T04:16:36.114Z,102723.84
2022-10-11T04:19:32.071Z,102727.69
2022-10-11T04:24:39.247Z,102737.41
2022-10-11T04:33:42.781Z,102737.63
2022-10-11T04:36:07.352Z,102742.25
2022-10-11T04:41:19.869Z,102746.16
2022-10-11T04:43:47.362Z,102752.69
2022-10-11T04:46:39.184Z,102755.06
2022-10-11T04:49:05.048Z,102749.84
2022-10-11T04:51:33.805Z,102754.47
2022-10-11T04:54:02.597Z,102748.84
2022-10-11T04:56:30.666Z,102751.88
2022-10-11T04:59:24.532Z,102757.75
2022-10-11T05:01:50.255Z,102766.38
2022-10-11T05:04:17.007Z,102759.88
2022-10-11T05:06:43.789Z,102751.75
2022-10-11T05:09:10.694Z,102765.78
2022-10-11T05:11:41.957Z,102763.25
2022-10-11T05:14:11.223Z,102763.75
2022-10-11T05:16:42.921Z,102767.25
2022-10-11T05:19:57.883Z,102759.47
2022-10-11T05:22:28.427Z,102771.06
2022-10-11T05:28:46.713Z,102771.06
2022-10-11T05:31:41.473Z,102779.16
2022-10-11T05:34:09.484Z,102774.88
2022-10-11T05:36:38.906Z,102769.78
2022-10-11T05:39:05.972Z,102776.88
2022-10-11T05:41:51.875Z,102779.56
2022-10-11T05:44:18.653Z,102779.38
2022-10-11T05:46:47.035Z,102772.38
2022-10-11T05:49:13.666Z,102779.19
2022-10-11T05:51:45.802Z,102785.41
2022-10-11T05:54:12.622Z,102786.50
2022-10-11T05:56:39.256Z,102788.09
2022-10-11T05:59:57.195Z,102781.91
2022-10-11T06:01:57.741Z,102787.59
2022-10-11T06:10:52.232Z,102801.72
2022-10-11T06:13:18.706Z,102794.41
2022-10-11T06:15:45.202Z,102800.94
2022-10-11T06:18:11.681Z,102798.53
2022-10-11T06:20:38.206Z,102799.31
2022-10-11T06:23:04.675Z,102805.22
2022-10-11T06:25:31.143Z,102807.41
2022-10-11T06:27:57.647Z,102811.13
2022-10-11T06:30:24.325Z,102810.31
2022-10-11T06:32:50.900Z,102819.50
2022-10-11T06:35:17.525Z,102812.22
2022-10-11T06:37:44.071Z,102813.81
2022-10-11T06:40:11.124Z,102823.72
2022-10-11T06:42:37.816Z,102830.13
2022-10-11T06:45:04.776Z,102822.53
2022-10-11T06:47:32.287Z,102826.53
2022-10-11T06:49:58.857Z,102825.09
2022-10-11T06:52:25.338Z,102833.44
2022-10-11T06:54:51.778Z,102824.69
2022-10-11T06:57:18.310Z,102832.50
2022-10-11T06:59:44.826Z,102842.22
2022-10-11T07:02:11.349Z,102839.22
2022-10-11T07:04:37.853Z,102849.72
2022-10-11T07:07:04.757Z,102849.41
2022-10-11T07:09:31.462Z,102852.63
2022-10-11T07:11:57.980Z,102854.41
2022-10-11T07:14:24.497Z,102848.88
2022-10-11T07:16:51.036Z,102858.00
2022-10-11T07:19:17.520Z,102860.09
2022-10-11T07:21:44.075Z,102860.28
2022-10-11T07:24:10.577Z,102862.41
2022-10-11T07:26:38.907Z,102864.47
2022-10-11T07:29:07.526Z,102865.19
2022-10-11T07:31:34.364Z,102867.75
2022-10-11T07:34:00.933Z,102863.03
2022-10-11T07:36:27.442Z,102871.03
2022-10-11T07:38:54.127Z,102864.38
2022-10-11T07:41:21.293Z,102871.59
2022-10-11T07:43:49.895Z,102867.66
2022-10-11T07:46:18.336Z,102875.69
2022-10-11T07:48:45.032Z,102873.63
2022-10-11T07:51:15.901Z,102872.72
2022-10-11T07:53:45.797Z,102871.63
2022-10-11T07:56:14.147Z,102879.91
2022-10-11T07:58:41.942Z,102882.81
2022-10-11T08:01:09.603Z,102887.91
2022-10-11T08:03:37.723Z,102896.50
2022-10-11T08:06:07.790Z,102891.59
2022-10-11T08:08:34.955Z,102893.69
2022-10-11T08:11:01.594Z,102893.38
2022-10-11T08:13:28.278Z,102896.75
2022-10-11T08:15:54.971Z,102905.88
2022-10-11T08:18:21.559Z,102911.94
2022-10-11T08:20:48.163Z,102910.41
2022-10-11T08:23:16.714Z,102909.19
2022-10-11T08:25:45.219Z,102916.38
2022-10-11T08:28:17.942Z,102908.59
2022-10-11T08:30:50.632Z,102897.31
2022-10-11T08:33:18.397Z,102907.88
2022-10-11T08:35:45.178Z,102909.34
2022-10-11T08:38:12.977Z,102911.09
2022-10-11T08:40:52.151Z,102918.66
2022-10-11T08:43:32.884Z,102920.72
2022-10-11T08:46:02.941Z,102926.34
2022-10-11T08:48:36.459Z,102924.28
2022-10-11T08:51:13.959Z,102922.22
2022-10-11T08:53:51.846Z,102926.22
2022-10-11T08:56:21.564Z,102930.72
2022-10-11T08:59:01.177Z,102927.03
2022-10-11T09:01:29.757Z,102939.66
2022-10-11T09:04:00.094Z,102925.16
2022-10-11T09:06:37.273Z,102921.50
2022-10-11T09:09:28.128Z,102922.66
2022-10-11T09:12:02.314Z,102920.25
2022-10-11T09:14:54.586Z,102928.06
2022-10-11T09:17:28.275Z,102925.53
2022-10-11T09:20:03.769Z,102928.56
2022-10-11T09:22:48.808Z,102938.00
2022-10-11T09:25:17.322Z,102934.97
2022-10-11T09:28:03.117Z,102927.44
2022-10-11T09:30:30.327Z,102927.44
2022-10-11T09:33:13.488Z,102935.28
2022-10-11T09:35:44.381Z,102936.56
2022-10-11T09:38:24.640Z,102934.50
2022-10-11T09:41:03.156Z,102933.66
2022-10-11T09:43:30.249Z,102935.56
2022-10-11T09:45:56.745Z,102934.28
2022-10-11T09:48:27.690Z,102936.50
2022-10-11T09:51:02.500Z,102937.41
2022-10-11T09:53:51.704Z,102936.28
2022-10-11T09:56:18.302Z,102934.34
2022-10-11T09:58:44.962Z,102936.13
2022-10-11T10:01:21.691Z,102936.09
2022-10-11T10:03:48.543Z,102935.19
2022-10-11T10:06:17.651Z,102943.22
2022-10-11T10:08:46.961Z,102933.81
2022-10-11T10:11:14.486Z,102932.03
2022-10-11T10:13:46.749Z,102941.63
2022-10-11T10:16:22.671Z,102938.56
2022-10-11T10:18:54.549Z,102935.84
2022-10-11T10:21:29.206Z,102929.00
2022-10-11T10:23:57.646Z,102936.38
2022-10-11T10:26:26.524Z,102934.44
2022-10-11T10:28:55.138Z,102931.03
2022-10-11T10:31:24.130Z,102933.78
2022-10-11T10:33:53.640Z,102928.78
2022-10-11T10:36:27.475Z,102935.97
2022-10-11T10:39:05.697Z,102924.75
2022-10-11T10:41:32.613Z,102924.53
2022-10-11T10:44:00.873Z,102920.75
2022-10-11T10:46:39.434Z,102920.91
2022-10-11T10:49:52.650Z,102924.19
2022-10-11T10:52:13.725Z,102925.28
2022-10-11T10:54:55.338Z,102931.56
2022-10-11T10:57:49.053Z,102927.63
2022-10-11T11:00:19.468Z,102917.97
2022-10-11T11:03:06.774Z,102920.38
2022-10-11T11:06:02.728Z,102933.38
2022-10-11T11:08:30.328Z,102923.19
2022-10-11T11:11:11.372Z,102923.09
2022-10-11T11:14:04.426Z,102917.28
2022-10-11T11:16:31.983Z,102912.97
2022-10-11T11:19:08.418Z,102916.81
2022-10-11T11:21:41.806Z,102919.53
2022-10-11T11:24:44.618Z,102917.28
2022-10-11T11:27:46.502Z,102916.25
2022-10-11T11:30:20.305Z,102910.81
2022-10-11T11:33:03.449Z,102908.88
2022-10-11T11:35:38.306Z,102908.06
2022-10-11T11:38:14.843Z,102907.41
2022-10-11T11:40:58.799Z,102906.25
2022-10-11T11:43:34.002Z,102904.00
2022-10-11T11:46:09.498Z,102903.66
2022-10-11T11:48:36.087Z,102906.50
2022-10-11T11:51:06.769Z,102904.69
2022-10-11T11:53:57.465Z,102895.00
2022-10-11T11:56:40.260Z,102895.84
2022-10-11T11:59:15.316Z,102904.56
2022-10-11T12:01:53.522Z,102892.16
2022-10-11T12:04:29.734Z,102893.41
2022-10-11T12:07:16.036Z,102890.13
2022-10-11T12:09:45.759Z,102889.91
2022-10-11T12:12:29.713Z,102876.72
2022-10-11T12:15:18.172Z,102881.03
2022-10-11T12:18:17.395Z,102878.88
2022-10-11T12:20:44.652Z,102873.16
2022-10-11T12:23:44.617Z,102876.44
2022-10-11T12:26:19.575Z,102868.03
2022-10-11T12:29:01.104Z,102859.25
2022-10-11T12:31:31.524Z,102866.84
2022-10-11T12:34:32.466Z,102857.16
2022-10-11T12:37:03.199Z,102846.44
2022-10-11T12:39:52.193Z,102851.56
2022-10-11T12:42:22.910Z,102850.88
2022-10-11T12:45:24.593Z,102853.78
2022-10-11T12:48:15.128Z,102850.81
2022-10-11T12:51:11.830Z,102853.06
2022-10-11T12:54:25.585Z,102846.94
2022-10-11T12:57:11.883Z,102845.50
2022-10-11T12:59:44.613Z,102846.78
2022-10-11T13:02:35.194Z,102845.78
2022-10-11T13:05:25.141Z,102847.91
2022-10-11T13:07:55.516Z,102845.75
2022-10-11T13:10:28.841Z,102845.38
2022-10-11T13:12:59.576Z,102836.94
2022-10-11T13:15:26.617Z,102839.72
2022-10-11T13:17:59.546Z,102835.94
2022-10-11T13:20:30.661Z,102835.75
2022-10-11T13:22:58.318Z,102841.59
2022-10-11T13:25:27.939Z,102839.56
2022-10-11T13:27:57.365Z,102839.03
2022-10-11T13:30:29.695Z,102841.34
2022-10-11T13:32:57.581Z,102841.69
2022-10-11T13:35:29.361Z,102836.56
2022-10-11T13:37:56.405Z,102829.84
2022-10-11T13:40:23.907Z,102828.63
2022-10-11T13:42:52.394Z,102832.41
2022-10-11T13:45:23.054Z,102835.41
2022-10-11T13:47:51.998Z,102838.03
2022-10-11T13:50:24.194Z,102825.44
2022-10-11T13:52:56.528Z,102829.66
2022-10-11T13:55:25.006Z,102825.69
2022-10-11T13:57:52.431Z,102821.34
2022-10-11T14:00:35.143Z,102829.56
2022-10-11T14:03:18.436Z,102823.75
2022-10-11T14:05:57.981Z,102817.94
2022-10-11T14:08:37.820Z,102824.38
2022-10-11T14:11:06.804Z,102825.00
2022-10-11T14:13:46.510Z,102820.88
2022-10-11T14:16:29.495Z,102816.78
2022-10-11T14:19:01.055Z,102811.88
2022-10-11T14:21:47.837Z,102816.28
2022-10-11T14:24:14.651Z,102818.66
2022-10-11T14:26:47.270Z,102812.91
2022-10-11T14:29:28.892Z,102814.94
2022-10-11T14:32:01.336Z,102815.03
2022-10-11T14:34:28.440Z,102812.00
2022-10-11T14:36:58.473Z,102810.50
2022-10-11T14:39:27.768Z,102805.22
2022-10-11T14:41:54.784Z,102807.34
2022-10-11T14:44:22.530Z,102810.56
2022-10-11T14:47:13.111Z,102810.56
2022-10-11T14:49:39.789Z,102813.66
2022-10-11T14:52:10.629Z,102800.34
2022-10-11T14:54:37.251Z,102811.28
2022-10-11T14:57:24.405Z,102810.47
2022-10-11T15:03:14.392Z,102809.69
2022-10-11T15:05:41.108Z,102817.56
2022-10-11T15:08:07.821Z,102808.19
2022-10-11T15:10:38.164Z,102805.38
2022-10-11T15:13:07.170Z,102805.22
2022-10-11T15:18:25.168Z,102806.91
2022-10-11T15:20:56.005Z,102805.22
2022-10-11T15:23:22.740Z,102805.50
2022-10-11T15:25:49.419Z,102801.44
2022-10-11T15:28:25.976Z,102802.94
2022-10-11T15:30:52.782Z,102801.28
2022-10-11T15:33:19.467Z,102796.88
2022-10-11T15:35:46.113Z,102795.19
2022-10-11T15:38:26.969Z,102795.47
2022-10-11T15:40:54.135Z,102791.41
2022-10-11T15:43:24.771Z,102800.31
2022-10-11T15:45:51.927Z,102793.53
2022-10-11T15:48:19.516Z,102791.06
2022-10-11T15:50:46.460Z,102792.91
2022-10-11T15:53:16.099Z,102789.63
2022-10-11T15:55:46.678Z,102780.91
2022-10-11T15:58:15.350Z,102786.25
2022-10-11T16:00:43.585Z,102788.09
2022-10-11T16:03:12.959Z,102780.94
2022-10-11T16:05:40.551Z,102779.25
2022-10-11T16:08:07.726Z,102775.63
2022-10-11T16:10:34.727Z,102779.78
2022-10-11T16:13:01.975Z,102782.72
2022-10-11T16:15:28.737Z,102781.84
2022-10-11T16:17:55.386Z,102779.69
2022-10-11T16:20:24.397Z,102777.56
2022-10-11T16:22:52.743Z,102783.28
2022-10-11T16:25:20.639Z,102783.88
2022-10-11T16:27:47.433Z,102780.59
2022-10-11T16:30:16.297Z,102781.28
2022-10-11T16:32:44.441Z,102780.38
2022-10-11T16:35:13.365Z,102771.97
2022-10-11T16:40:23.169Z,102788.41
2022-10-11T16:42:49.746Z,102787.94
2022-10-11T16:45:17.714Z,102791.72
2022-10-11T16:47:44.779Z,102791.13
2022-10-11T16:50:12.869Z,102797.63
2022-10-11T16:52:39.518Z,102801.38
2022-10-11T16:55:06.457Z,102799.22
2022-10-11T16:57:32.984Z,102802.63
2022-10-11T16:59:59.613Z,102796.72
2022-10-11T17:02:32.099Z,102794.34
2022-10-11T17:04:59.302Z,102791.47
2022-10-11T17:07:26.497Z,102794.91
2022-10-11T17:09:53.074Z,102791.72
2022-10-11T17:12:23.471Z,102797.88
2022-10-11T17:14:51.091Z,102803.31
2022-10-11T17:17:18.729Z,102795.47
2022-10-11T17:19:47.337Z,102798.53
2022-10-11T17:22:19.741Z,102794.91
2022-10-11T17:24:46.481Z,102797.97
2022-10-11T17:27:13.351Z,102798.63
2022-10-11T17:29:40.230Z,102801.69
2022-10-11T17:32:07.071Z,102807.13
2022-10-11T17:34:34.923Z,102795.00
2022-10-11T17:37:01.614Z,102792.59
2022-10-11T17:39:28.317Z,102797.59
2022-10-11T17:41:54.877Z,102797.47
2022-10-11T17:44:21.772Z,102804.38
2022-10-11T17:46:48.683Z,102802.34
2022-10-11T17:49:16.945Z,102798.38
2022-10-11T17:51:44.119Z,102795.97
2022-10-11T17:54:16.808Z,102797.44
2022-10-11T17:56:43.573Z,102793.81
2022-10-11T17:59:16.835Z,102796.44
2022-10-11T18:01:43.654Z,102801.75
2022-10-11T18:04:23.785Z,102795.03
2022-10-11T18:06:50.392Z,102798.78
2022-10-11T18:09:18.603Z,102797.06
2022-10-11T18:11:45.829Z,102806.72
2022-10-11T18:14:12.911Z,102795.69
2022-10-11T18:16:40.808Z,102799.75
2022-10-11T18:19:10.881Z,102795.31
2022-10-11T18:21:38.640Z,102796.00
2022-10-11T18:24:13.021Z,102805.16
2022-10-11T18:26:39.878Z,102795.59
2022-10-11T18:29:07.034Z,102797.41
2022-10-11T18:31:35.322Z,102799.66
2022-10-11T18:34:03.760Z,102793.75
2022-10-11T18:36:31.251Z,102794.09
2022-10-11T18:39:00.957Z,102797.47
2022-10-11T18:41:30.798Z,102799.72
2022-10-11T18:44:00.383Z,102793.81
2022-10-11T18:46:27.915Z,102800.25
2022-10-11T18:48:56.849Z,102794.25
2022-10-11T18:51:26.519Z,102780.16
2022-10-11T18:53:54.594Z,102786.72
2022-10-11T18:56:23.879Z,102790.91
2022-10-11T18:58:51.852Z,102784.22
2022-10-11T19:01:22.032Z,102786.78
2022-10-11T19:03:53.724Z,102782.34
2022-10-11T19:06:22.992Z,102781.09
2022-10-11T19:08:52.901Z,102783.69
2022-10-11T19:11:24.384Z,102788.19
2022-10-11T19:14:06.408Z,102783.41
2022-10-11T19:16:36.119Z,102785.53
2022-10-11T19:19:02.721Z,102784.59
2022-10-11T19:21:30.137Z,102786.38
2022-10-11T19:23:57.418Z,102777.28
2022-10-11T19:26:29.799Z,102775.53
2022-10-11T19:28:59.040Z,102780.00
2022-10-11T19:31:26.444Z,102774.13
2022-10-11T19:33:53.609Z,102773.66
2022-10-11T19:36:20.412Z,102779.28
2022-10-11T19:38:49.443Z,102773.72
2022-10-11T19:41:19.162Z,102776.75
2022-10-11T19:43:49.397Z,102772.78
2022-10-11T19:46:37.851Z,102775.81
2022-10-11T19:49:06.156Z,102776.16
2022-10-11T19:51:35.035Z,102776.00
2022-10-11T19:54:03.831Z,102775.22
2022-10-11T19:56:32.340Z,102769.31
2022-10-11T19:59:00.825Z,102764.19
2022-10-11T20:01:30.632Z,102761.47
2022-10-11T20:04:00.189Z,102768.34
2022-10-11T20:06:28.708Z,102764.38
2022-10-11T20:09:24.067Z,102765.84
2022-10-11T20:11:43.419Z,102770.00
2022-10-11T20:14:10.000Z,102767.94
2022-10-11T20:16:36.802Z,102762.38
2022-10-11T20:19:05.082Z,102767.63
2022-10-11T20:21:33.102Z,102771.81
2022-10-11T20:24:02.473Z,102775.16
2022-10-11T20:26:30.521Z,102780.47
2022-10-11T20:28:57.946Z,102778.06
2022-10-11T20:31:29.572Z,102768.97
2022-10-11T20:33:58.472Z,102771.88
2022-10-11T20:36:29.590Z,102774.09
2022-10-11T20:38:57.452Z,102779.06
2022-10-11T20:41:52.954Z,102773.16
2022-10-11T20:44:19.588Z,102780.03
2022-10-11T20:46:46.245Z,102769.84
2022-10-11T20:49:13.328Z,102777.16
2022-10-11T20:51:41.801Z,102779.44
2022-10-11T20:54:08.877Z,102784.03
2022-10-11T20:56:36.478Z,102783.56
2022-10-11T20:59:03.807Z,102778.00
2022-10-11T21:01:55.479Z,102773.19
2022-10-11T21:04:22.175Z,102776.56
2022-10-11T21:06:48.959Z,102769.38
2022-10-11T21:09:18.198Z,102775.13
2022-10-11T21:11:45.073Z,102769.22
2022-10-11T21:14:13.534Z,102767.16
2022-10-11T21:16:40.154Z,102770.19
2022-10-11T21:19:07.792Z,102772.44
2022-10-11T21:21:34.674Z,102770.38
2022-10-11T21:24:05.440Z,102772.59
2022-10-11T21:26:36.826Z,102772.44
2022-10-11T21:29:04.291Z,102764.63
2022-10-11T21:31:34.378Z,102771.63
2022-10-11T21:34:02.403Z,102771.16
2022-10-11T21:36:29.082Z,102766.56
2022-10-11T21:38:56.795Z,102763.19
2022-10-11T21:41:25.642Z,102768.44
2022-10-11T21:43:53.260Z,102770.72
2022-10-11T21:46:23.760Z,102770.25
2022-10-11T21:48:51.702Z,102774.53
2022-10-11T21:51:43.868Z,102779.16
2022-10-11T21:54:11.022Z,102780.59
2022-10-11T21:56:37.747Z,102771.66
2022-10-11T21:59:11.036Z,102776.47
2022-10-11T22:01:40.751Z,102781.41
2022-10-11T22:04:07.998Z,102779.16
2022-10-11T22:06:35.715Z,102774.53
2022-10-11T22:12:14.746Z,102773.88
2022-10-11T22:14:39.442Z,102770.84
2022-10-11T22:17:06.068Z,102776.28
2022-10-11T22:19:34.991Z,102774.34
2022-10-11T22:22:03.893Z,102768.16
2022-10-11T22:24:30.743Z,102766.22
2022-10-11T22:26:57.341Z,102762.72
2022-10-11T22:29:24.121Z,102763.84
2022-10-11T22:31:50.741Z,102770.38
2022-10-11T22:34:19.680Z,102766.09
2022-10-11T22:36:46.324Z,102768.78
2022-10-11T22:39:13.077Z,102762.56
2022-10-11T22:41:40.890Z,102763.19
2022-10-11T22:44:07.481Z,102768.16
2022-10-11T22:46:37.404Z,102761.13
2022-10-11T22:49:04.192Z,102763.69
2022-10-11T22:51:31.055Z,102766.41
2022-10-11T22:53:57.742Z,102773.25
2022-10-11T22:56:24.415Z,102766.25
2022-10-11T22:58:51.216Z,102763.06
2022-10-11T23:01:17.899Z,102760.97
2022-10-11T23:03:49.250Z,102762.09
2022-10-11T23:06:16.032Z,102764.81
2022-10-11T23:08:44.304Z,102759.69
2022-10-11T23:11:11.975Z,102770.22
2022-10-11T23:13:38.684Z,102762.72
2022-10-11T23:16:07.654Z,102767.66
2022-10-11T23:18:34.348Z,102752.81
2022-10-11T23:21:04.998Z,102758.25
2022-10-11T23:23:31.687Z,102747.41
2022-10-11T23:26:04.921Z,102750.75
2022-10-11T23:28:32.189Z,102741.03
2022-10-11T23:30:59.097Z,102741.66
2022-10-11T23:33:25.784Z,102734.97
2022-10-11T23:35:52.449Z,102739.59
2022-10-11T23:38:20.183Z,102738.81
2022-10-11T23:40:46.808Z,102744.53
2022-10-11T23:43:13.535Z,102741.34
2022-10-11T23:45:43.317Z,102730.66
2022-10-11T23:48:10.200Z,102742.13
2022-10-11T23:50:36.855Z,102741.66
2022-10-11T23:53:03.863Z,102731.94
2022-10-11T23:55:30.618Z,102733.00
2022-10-11T23:57:57.381Z,102743.06
